createdAt,value
2023-03-05T00:01:15.208Z,15.25
2023-03-05T00:03:42.331Z,11.00
2023-03-05T00:06:09.600Z,6.88
2023-03-05T00:08:37.286Z,6.50
2023-03-05T00:11:08.498Z,8.10
2023-03-05T00:13:36.647Z,16.42
2023-03-05T00:16:10.513Z,10.13
2023-03-05T00:18:38.544Z,12.88
2023-03-05T00:21:16.738Z,8.45
2023-03-05T00:23:43.954Z,22.88
2023-03-05T00:26:11.024Z,12.98
2023-03-05T00:28:39.000Z,13.75
2023-03-05T00:31:06.079Z,6.93
2023-03-05T00:33:33.208Z,6.63
2023-03-05T00:36:02.432Z,4.13
2023-03-05T00:38:29.509Z,16.02
2023-03-05T00:40:56.540Z,13.95
2023-03-05T00:43:23.860Z,8.60
2023-03-05T00:45:50.871Z,13.80
2023-03-05T00:48:18.443Z,9.45
2023-03-05T00:50:46.074Z,7.00
2023-03-05T00:53:13.119Z,3.30
2023-03-05T00:55:40.211Z,11.63
2023-03-05T00:58:07.236Z,6.65
2023-03-05T01:00:34.321Z,17.52
2023-03-05T01:03:01.488Z,12.57
2023-03-05T01:05:28.583Z,10.68
2023-03-05T01:07:56.255Z,10.05
2023-03-05T01:10:27.528Z,3.72
2023-03-05T01:12:56.500Z,5.85
2023-03-05T01:15:24.824Z,5.93
2023-03-05T01:17:52.180Z,4.68
2023-03-05T01:20:22.114Z,4.82
2023-03-05T01:22:49.386Z,5.57
2023-03-05T01:25:17.680Z,9.00
2023-03-05T01:27:44.930Z,6.95
2023-03-05T01:30:13.866Z,5.35
2023-03-05T01:32:41.769Z,6.28
2023-03-05T01:35:15.261Z,2.88
2023-03-05T01:37:42.295Z,6.70
2023-03-05T01:40:16.445Z,9.25
2023-03-05T01:42:49.206Z,6.00
2023-03-05T01:45:18.521Z,1.75
2023-03-05T01:47:45.992Z,7.57
2023-03-05T01:50:17.488Z,3.92
2023-03-05T01:52:51.104Z,2.83
2023-03-05T01:55:23.625Z,4.07
2023-03-05T02:00:35.293Z,1.30
2023-03-05T02:03:06.502Z,1.65
2023-03-05T02:05:36.300Z,2.90
2023-03-05T02:08:09.276Z,5.03
2023-03-05T02:10:45.936Z,4.35
2023-03-05T02:13:25.199Z,4.90
2023-03-05T02:15:54.553Z,4.90
2023-03-05T02:18:22.291Z,10.25
2023-03-05T02:20:51.171Z,2.17
2023-03-05T02:23:21.005Z,3.65
2023-03-05T02:25:48.571Z,3.60
2023-03-05T02:28:53.883Z,1.88
2023-03-05T02:31:24.005Z,2.10
2023-03-05T02:33:52.192Z,2.47
2023-03-05T02:36:20.325Z,7.35
2023-03-05T02:38:47.838Z,2.95
2023-03-05T02:41:15.633Z,4.53
2023-03-05T02:43:42.969Z,3.88
2023-03-05T02:46:10.500Z,6.50
2023-03-05T02:48:39.879Z,3.60
2023-03-05T02:51:07.796Z,6.45
2023-03-05T02:53:35.451Z,4.47
2023-03-05T02:56:03.140Z,5.65
2023-03-05T02:58:32.935Z,11.23
2023-03-05T03:01:00.113Z,3.28
2023-03-05T03:03:27.468Z,4.47
2023-03-05T03:05:54.481Z,6.80
2023-03-05T03:08:21.459Z,5.88
2023-03-05T03:10:48.432Z,9.63
2023-03-05T03:13:15.479Z,4.53
2023-03-05T03:15:42.508Z,5.00
2023-03-05T03:18:09.747Z,2.95
2023-03-05T03:20:40.108Z,8.02
2023-03-05T03:23:07.305Z,5.18
2023-03-05T03:25:35.145Z,3.58
2023-03-05T03:28:02.240Z,6.28
2023-03-05T03:30:29.337Z,5.72
2023-03-05T03:32:56.318Z,1.15
2023-03-05T03:35:23.391Z,3.85
2023-03-05T03:37:50.441Z,6.40
2023-03-05T03:40:17.735Z,8.75
2023-03-05T03:42:44.837Z,7.57
2023-03-05T03:45:12.530Z,1.65
2023-03-05T03:47:39.524Z,2.63
2023-03-05T03:50:06.956Z,5.80
2023-03-05T03:52:34.084Z,5.47
2023-03-05T03:55:01.503Z,5.53
2023-03-05T03:57:29.970Z,5.47
2023-03-05T03:59:56.982Z,4.97
2023-03-05T04:02:24.072Z,4.53
2023-03-05T04:04:52.021Z,5.55
2023-03-05T04:07:19.522Z,5.45
2023-03-05T04:09:46.599Z,6.93
2023-03-05T04:12:17.873Z,6.28
2023-03-05T04:14:46.249Z,3.08
2023-03-05T04:17:14.290Z,8.48
2023-03-05T04:19:41.997Z,9.50
2023-03-05T04:22:14.075Z,9.05
2023-03-05T04:24:41.357Z,7.50
2023-03-05T04:27:08.815Z,10.23
2023-03-05T04:29:36.094Z,8.65
2023-03-05T04:32:03.773Z,11.82
2023-03-05T04:34:30.835Z,8.07
2023-03-05T04:36:57.904Z,9.27
2023-03-05T04:39:25.178Z,10.45
2023-03-05T04:41:52.229Z,6.43
2023-03-05T04:44:19.297Z,7.53
2023-03-05T04:46:46.440Z,8.48
2023-03-05T04:49:13.481Z,16.13
2023-03-05T04:51:40.487Z,13.35
2023-03-05T04:54:08.076Z,21.42
2023-03-05T04:56:35.112Z,5.75
2023-03-05T04:59:02.097Z,16.90
2023-03-05T05:01:29.223Z,14.48
2023-03-05T05:03:56.239Z,14.05
2023-03-05T05:06:23.297Z,12.75
2023-03-05T05:08:50.303Z,12.77
2023-03-05T05:11:18.098Z,11.68
2023-03-05T05:13:45.166Z,15.43
2023-03-05T05:16:12.270Z,19.65
2023-03-05T05:18:39.357Z,13.50
2023-03-05T05:21:10.614Z,17.13
2023-03-05T05:23:37.757Z,20.13
2023-03-05T05:26:06.769Z,22.13
2023-03-05T05:28:35.048Z,14.23
2023-03-05T05:31:07.687Z,11.00
2023-03-05T05:33:34.782Z,10.45
2023-03-05T05:36:04.402Z,14.93
2023-03-05T05:38:31.735Z,13.98
2023-03-05T05:41:07.184Z,18.50
2023-03-05T05:43:34.191Z,15.55
2023-03-05T05:46:08.175Z,6.35
2023-03-05T05:48:36.200Z,9.70
2023-03-05T05:51:08.368Z,8.77
2023-03-05T05:53:35.674Z,9.23
2023-03-05T05:56:05.055Z,4.72
2023-03-05T05:58:32.145Z,11.32
2023-03-05T06:00:59.269Z,13.15
2023-03-05T06:03:26.404Z,6.72
2023-03-05T06:05:53.802Z,10.05
2023-03-05T06:08:20.825Z,8.02
2023-03-05T06:10:54.387Z,6.80
2023-03-05T06:13:21.480Z,16.88
2023-03-05T06:16:02.725Z,6.95
2023-03-05T06:18:30.672Z,7.13
2023-03-05T06:20:59.856Z,12.20
2023-03-05T06:23:27.820Z,4.32
2023-03-05T06:25:55.491Z,9.68
2023-03-05T06:28:22.529Z,8.05
2023-03-05T06:30:49.607Z,8.38
2023-03-05T06:33:17.536Z,2.60
2023-03-05T06:35:44.626Z,6.45
2023-03-05T06:38:11.640Z,9.10
2023-03-05T06:40:39.706Z,4.22
2023-03-05T06:43:07.001Z,4.80
2023-03-05T06:45:34.070Z,5.85
2023-03-05T06:48:01.055Z,12.20
2023-03-05T06:50:28.399Z,6.05
2023-03-05T06:52:55.474Z,9.32
2023-03-05T06:55:22.456Z,9.88
2023-03-05T06:57:49.449Z,10.00
2023-03-05T07:00:16.967Z,11.93
2023-03-05T07:02:44.051Z,20.52
2023-03-05T07:05:11.245Z,14.35
2023-03-05T07:07:38.298Z,14.70
2023-03-05T07:10:07.498Z,19.35
2023-03-05T07:12:35.152Z,21.75
2023-03-05T07:15:02.239Z,21.63
2023-03-05T07:17:29.785Z,26.67
2023-03-05T07:19:56.770Z,24.45
2023-03-05T07:22:23.800Z,25.92
2023-03-05T07:24:51.056Z,30.48
2023-03-05T07:27:18.060Z,26.58
2023-03-05T07:29:45.093Z,35.67
2023-03-05T07:32:12.110Z,31.48
2023-03-05T07:34:39.180Z,32.85
2023-03-05T07:37:06.254Z,29.52
2023-03-05T07:39:33.366Z,25.50
2023-03-05T07:42:00.374Z,32.50
2023-03-05T07:44:38.892Z,26.35
2023-03-05T07:47:06.221Z,26.73
2023-03-05T07:49:33.200Z,23.50
2023-03-05T07:52:00.381Z,17.02
2023-03-05T07:54:27.355Z,22.02
2023-03-05T07:56:54.701Z,20.85
2023-03-05T07:59:21.664Z,23.95
2023-03-05T08:01:48.637Z,17.15
2023-03-05T08:04:15.663Z,17.00
2023-03-05T08:06:42.757Z,15.52
2023-03-05T08:09:09.818Z,14.35
2023-03-05T08:11:36.853Z,16.77
2023-03-05T08:14:04.485Z,21.42
2023-03-05T08:16:31.952Z,16.88
2023-03-05T08:18:59.067Z,12.73
2023-03-05T08:21:33.732Z,14.82
2023-03-05T08:24:07.814Z,11.18
2023-03-05T08:26:38.358Z,15.60
2023-03-05T08:29:07.482Z,18.75
2023-03-05T08:31:35.512Z,19.08
2023-03-05T08:34:03.712Z,10.70
2023-03-05T08:36:30.855Z,8.68
2023-03-05T08:38:59.649Z,16.88
2023-03-05T08:41:26.950Z,9.77
2023-03-05T08:43:54.003Z,8.68
2023-03-05T08:46:21.069Z,6.57
2023-03-05T08:48:48.180Z,12.68
2023-03-05T08:51:17.956Z,10.60
2023-03-05T08:53:46.302Z,8.15
2023-03-05T08:56:14.513Z,10.88
2023-03-05T08:58:42.063Z,6.55
2023-03-05T09:01:09.233Z,6.18
2023-03-05T09:03:36.497Z,7.30
2023-03-05T09:06:06.734Z,7.97
2023-03-05T09:08:35.568Z,6.70
2023-03-05T09:11:05.193Z,9.57
2023-03-05T09:13:32.914Z,6.95
2023-03-05T09:16:08.911Z,6.00
2023-03-05T09:18:36.698Z,4.50
2023-03-05T09:21:08.673Z,5.35
2023-03-05T09:23:35.680Z,6.55
2023-03-05T09:26:05.896Z,6.15
2023-03-05T09:28:32.969Z,7.20
2023-03-05T09:31:04.496Z,4.22
2023-03-05T09:33:32.930Z,1.63
2023-03-05T09:36:00.928Z,2.45
2023-03-05T09:38:29.081Z,4.53
2023-03-05T09:41:03.446Z,4.80
2023-03-05T09:43:44.137Z,5.03
2023-03-05T09:46:29.590Z,4.55
2023-03-05T09:49:13.698Z,7.50
2023-03-05T09:51:46.404Z,4.07
2023-03-05T09:54:21.416Z,8.10
2023-03-05T09:56:53.157Z,2.80
2023-03-05T09:59:29.548Z,4.70
2023-03-05T10:02:01.384Z,4.60
2023-03-05T10:04:52.408Z,4.90
2023-03-05T10:07:37.256Z,8.23
2023-03-05T10:10:15.546Z,10.77
2023-03-05T10:12:45.714Z,11.88
2023-03-05T10:15:16.274Z,9.57
2023-03-05T10:18:01.595Z,7.80
2023-03-05T10:21:22.036Z,5.32
2023-03-05T10:24:06.185Z,7.25
2023-03-05T10:26:57.529Z,6.38
2023-03-05T10:29:43.254Z,3.65
2023-03-05T10:32:29.460Z,6.32
2023-03-05T10:35:14.946Z,13.38
2023-03-05T10:37:51.590Z,5.88
2023-03-05T10:40:18.597Z,5.60
2023-03-05T10:43:16.065Z,5.25
2023-03-05T10:45:54.492Z,2.92
2023-03-05T10:49:09.696Z,11.38
2023-03-05T10:51:44.005Z,9.00
2023-03-05T10:54:29.687Z,8.60
2023-03-05T10:57:12.367Z,6.07
2023-03-05T10:59:44.251Z,5.97
2023-03-05T11:02:11.547Z,8.07
2023-03-05T11:04:40.962Z,8.52
2023-03-05T11:07:16.774Z,7.07
2023-03-05T11:10:04.246Z,6.15
2023-03-05T11:12:37.162Z,6.07
2023-03-05T11:15:10.143Z,5.45
2023-03-05T11:17:48.865Z,5.30
2023-03-05T11:20:28.774Z,7.40
2023-03-05T11:23:05.894Z,8.60
2023-03-05T11:25:34.685Z,9.38
2023-03-05T11:28:03.047Z,7.65
2023-03-05T11:30:36.364Z,5.88
2023-03-05T11:33:19.368Z,5.28
2023-03-05T11:35:48.078Z,12.25
2023-03-05T11:38:19.522Z,11.82
2023-03-05T11:40:47.393Z,9.57
2023-03-05T11:43:21.455Z,6.65
2023-03-05T11:45:55.583Z,11.00
2023-03-05T11:48:30.451Z,7.95
2023-03-05T11:51:06.174Z,6.50
2023-03-05T11:53:36.690Z,18.35
2023-03-05T11:56:19.616Z,7.65
2023-03-05T11:58:52.151Z,10.15
2023-03-05T12:03:52.815Z,17.05
2023-03-05T12:06:33.879Z,10.25
2023-03-05T12:09:07.581Z,11.90
2023-03-05T12:11:36.463Z,11.27
2023-03-05T12:14:17.832Z,8.07
2023-03-05T12:17:01.810Z,12.23
2023-03-05T12:19:32.763Z,6.72
2023-03-05T12:22:00.411Z,9.48
2023-03-05T12:24:28.470Z,11.52
2023-03-05T12:27:04.748Z,6.38
2023-03-05T12:29:49.893Z,6.45
2023-03-05T12:32:23.206Z,8.85
2023-03-05T12:34:57.277Z,8.63
2023-03-05T12:37:24.175Z,5.93
2023-03-05T12:40:07.115Z,7.93
2023-03-05T12:42:34.017Z,4.95
2023-03-05T12:45:11.625Z,12.40
2023-03-05T13:04:32.268Z,8.57
2023-03-05T13:07:05.795Z,16.27
2023-03-05T13:09:36.173Z,13.27
2023-03-05T13:12:11.328Z,10.35
2023-03-05T13:15:14.888Z,6.85
2023-03-05T13:17:54.332Z,14.80
2023-03-05T13:20:26.799Z,6.10
2023-03-05T13:23:18.665Z,9.95
2023-03-05T13:25:56.441Z,8.05
2023-03-05T13:28:25.164Z,11.13
2023-03-05T13:30:56.350Z,5.55
2023-03-05T13:33:28.213Z,7.30
2023-03-05T13:35:55.660Z,6.85
2023-03-05T13:38:28.393Z,12.00
2023-03-05T13:41:04.096Z,10.63
2023-03-05T13:43:32.761Z,8.25
2023-03-05T13:45:59.893Z,9.75
2023-03-05T13:48:28.513Z,10.63
2023-03-05T13:50:57.711Z,9.70
2023-03-05T13:53:30.515Z,10.43
2023-03-05T13:56:06.524Z,15.05
2023-03-05T13:58:48.555Z,5.15
2023-03-05T14:01:28.834Z,8.80
2023-03-05T14:04:07.058Z,11.85
2023-03-05T14:06:41.831Z,11.55
2023-03-05T14:09:20.333Z,10.88
2023-03-05T14:12:03.064Z,10.50
2023-03-05T14:14:34.724Z,12.55
2023-03-05T14:17:23.621Z,10.40
2023-03-05T14:19:50.919Z,8.63
2023-03-05T14:22:38.169Z,7.93
2023-03-05T14:25:06.992Z,12.25
2023-03-05T14:27:36.293Z,9.95
2023-03-05T14:30:05.076Z,11.48
2023-03-05T14:32:35.837Z,11.75
2023-03-05T14:35:05.782Z,10.00
2023-03-05T14:37:36.806Z,7.93
2023-03-05T14:40:07.293Z,7.03
2023-03-05T14:42:39.437Z,14.75
2023-03-05T14:45:10.793Z,6.75
2023-03-05T14:47:37.905Z,9.98
2023-03-05T14:50:06.546Z,7.65
2023-03-05T14:52:34.735Z,12.10
2023-03-05T14:55:02.148Z,8.20
2023-03-05T14:57:31.691Z,6.75
2023-03-05T14:59:58.877Z,9.02
2023-03-05T15:02:26.897Z,12.07
2023-03-05T15:04:53.964Z,9.57
2023-03-05T15:07:28.508Z,12.10
2023-03-05T15:09:55.841Z,11.55
2023-03-05T15:12:24.635Z,10.77
2023-03-05T15:14:54.135Z,12.13
2023-03-05T15:17:25.773Z,11.48
2023-03-05T15:19:53.736Z,11.17
2023-03-05T15:22:21.080Z,11.77
2023-03-05T15:24:48.119Z,9.63
2023-03-05T15:27:15.092Z,14.05
2023-03-05T15:29:42.120Z,9.48
2023-03-05T15:32:09.293Z,9.98
2023-03-05T15:34:36.575Z,11.73
2023-03-05T15:37:04.222Z,15.60
2023-03-05T15:39:31.503Z,12.50
2023-03-05T15:41:58.997Z,13.00
2023-03-05T15:44:26.187Z,10.02
2023-03-05T15:46:53.354Z,10.80
2023-03-05T15:49:22.591Z,11.93
2023-03-05T15:51:50.703Z,16.58
2023-03-05T15:54:18.571Z,11.25
2023-03-05T15:56:45.582Z,16.75
2023-03-05T15:59:13.431Z,12.75
2023-03-05T16:01:45.603Z,15.48
2023-03-05T16:04:14.262Z,9.73
2023-03-05T16:06:41.943Z,16.65
2023-03-05T16:09:09.377Z,14.82
2023-03-05T16:11:39.680Z,21.58
2023-03-05T16:14:09.055Z,15.77
2023-03-05T16:16:36.469Z,17.77
2023-03-05T16:19:06.158Z,16.60
2023-03-05T16:21:33.309Z,18.35
2023-03-05T16:24:00.334Z,16.63
2023-03-05T16:26:27.303Z,17.83
2023-03-05T16:28:54.484Z,17.98
2023-03-05T16:31:21.530Z,24.10
2023-03-05T16:33:48.570Z,13.60
2023-03-05T16:36:22.574Z,13.45
2023-03-05T16:38:51.671Z,15.30
2023-03-05T16:41:21.949Z,16.27
2023-03-05T16:43:51.367Z,12.77
2023-03-05T16:46:18.408Z,16.65
2023-03-05T16:48:46.087Z,18.10
2023-03-05T16:51:13.091Z,19.13
2023-03-05T16:53:40.547Z,16.30
2023-03-05T16:56:09.598Z,18.65
2023-03-05T16:58:38.253Z,13.90
2023-03-05T17:01:10.456Z,17.05
2023-03-05T17:03:41.640Z,14.73
2023-03-05T17:06:13.657Z,20.10
2023-03-05T17:08:42.668Z,19.77
2023-03-05T17:11:11.935Z,16.20
2023-03-05T17:13:40.430Z,18.02
2023-03-05T17:16:09.486Z,17.17
2023-03-05T17:18:36.874Z,18.90
2023-03-05T17:21:07.042Z,16.33
2023-03-05T17:23:36.078Z,15.90
2023-03-05T17:26:05.237Z,18.52
2023-03-05T17:28:32.752Z,16.10
2023-03-05T17:31:01.315Z,15.20
2023-03-05T17:33:29.010Z,16.33
2023-03-05T17:35:56.396Z,12.13
2023-03-05T17:38:24.223Z,12.95
2023-03-05T17:40:51.312Z,9.70
2023-03-05T17:43:18.945Z,14.77
2023-03-05T17:45:47.298Z,20.65
2023-03-05T17:48:15.922Z,22.80
2023-03-05T17:50:44.824Z,28.15
2023-03-05T17:53:12.566Z,29.10
2023-03-05T17:55:40.355Z,18.63
2023-03-05T17:58:08.039Z,19.13
2023-03-05T18:00:36.097Z,26.38
2023-03-05T18:03:04.011Z,28.67
2023-03-05T18:05:31.652Z,26.92
2023-03-05T18:08:00.019Z,23.90
2023-03-05T18:10:28.487Z,21.25
2023-03-05T18:12:56.013Z,21.95
2023-03-05T18:15:25.840Z,20.40
2023-03-05T18:17:53.210Z,16.60
2023-03-05T18:20:30.086Z,16.08
2023-03-05T18:22:58.842Z,21.90
2023-03-05T18:25:30.768Z,18.83
2023-03-05T18:28:02.483Z,19.42
2023-03-05T18:30:31.018Z,18.30
2023-03-05T18:32:58.794Z,23.15
2023-03-05T18:35:26.972Z,18.05
2023-03-05T18:37:54.028Z,20.25
2023-03-05T18:40:23.746Z,21.70
2023-03-05T18:42:51.634Z,18.75
2023-03-05T18:45:21.130Z,22.80
2023-03-05T18:47:53.791Z,22.17
2023-03-05T18:50:22.837Z,22.42
2023-03-05T18:52:49.941Z,22.27
2023-03-05T18:55:19.421Z,27.58
2023-03-05T18:57:47.009Z,24.60
2023-03-05T19:00:16.882Z,23.05
2023-03-05T19:02:43.927Z,24.85
2023-03-05T19:05:13.214Z,25.70
2023-03-05T19:07:40.438Z,24.75
2023-03-05T19:10:10.089Z,27.42
2023-03-05T19:12:45.211Z,24.58
2023-03-05T19:15:13.304Z,21.38
2023-03-05T19:17:40.457Z,23.70
2023-03-05T19:20:10.911Z,25.60
2023-03-05T19:22:38.033Z,28.40
2023-03-05T19:25:06.312Z,23.67
2023-03-05T19:27:33.348Z,26.17
2023-03-05T19:30:00.784Z,22.95
2023-03-05T19:32:28.104Z,25.60
2023-03-05T19:34:57.141Z,24.20
2023-03-05T19:37:25.464Z,25.45
2023-03-05T19:39:52.902Z,26.92
2023-03-05T19:42:20.393Z,35.83
2023-03-05T19:44:47.437Z,24.77
2023-03-05T19:47:14.768Z,29.30
2023-03-05T19:49:41.834Z,25.25
2023-03-05T19:52:08.952Z,25.23
2023-03-05T19:54:36.036Z,25.70
2023-03-05T19:57:03.109Z,24.88
2023-03-05T19:59:30.147Z,26.27
2023-03-05T20:01:57.327Z,24.50
2023-03-05T20:04:25.038Z,23.88
2023-03-05T20:06:52.327Z,25.52
2023-03-05T20:09:19.642Z,23.88
2023-03-05T20:11:47.252Z,24.83
2023-03-05T20:14:14.658Z,25.48
2023-03-05T20:16:43.072Z,22.80
2023-03-05T20:19:16.779Z,25.45
2023-03-05T20:21:44.777Z,29.00
2023-03-05T20:24:16.335Z,23.38
2023-03-05T20:26:44.667Z,24.40
2023-03-05T20:29:14.874Z,28.13
2023-03-05T20:31:44.620Z,24.92
2023-03-05T20:34:14.705Z,21.13
2023-03-05T20:36:41.840Z,22.75
2023-03-05T20:39:08.922Z,27.52
2023-03-05T20:41:38.177Z,27.35
2023-03-05T20:44:06.123Z,30.42
2023-03-05T20:46:49.581Z,30.77
2023-03-05T20:49:16.764Z,24.00
2023-03-05T20:51:43.780Z,26.45
2023-03-05T20:54:13.162Z,27.98
2023-03-05T20:56:40.327Z,33.22
2023-03-05T20:59:08.695Z,27.80
2023-03-05T21:01:38.018Z,30.60
2023-03-05T21:04:05.763Z,26.55
2023-03-05T21:06:33.500Z,29.88
2023-03-05T21:09:00.829Z,29.00
2023-03-05T21:11:33.280Z,28.65
2023-03-05T21:14:00.902Z,27.00
2023-03-05T21:16:28.129Z,28.58
2023-03-05T21:18:57.141Z,31.75
2023-03-05T21:21:24.265Z,29.98
2023-03-05T21:23:52.057Z,25.38
2023-03-05T21:26:19.865Z,30.30
2023-03-05T21:28:46.924Z,28.30
2023-03-05T21:31:20.456Z,30.45
2023-03-05T21:33:48.856Z,32.38
2023-03-05T21:36:19.021Z,28.40
2023-03-05T21:38:48.304Z,28.05
2023-03-05T21:41:15.984Z,31.17
2023-03-05T21:43:43.275Z,36.35
2023-03-05T21:46:10.849Z,33.47
2023-03-05T21:48:38.119Z,31.52
2023-03-05T21:51:08.557Z,33.35
2023-03-05T21:53:35.929Z,30.25
2023-03-05T21:56:19.487Z,38.08
2023-03-05T21:58:47.576Z,30.83
2023-03-05T22:01:24.488Z,32.35
2023-03-05T22:03:51.818Z,31.08
2023-03-05T22:06:19.829Z,35.63
2023-03-05T22:08:47.242Z,34.15
2023-03-05T22:11:16.618Z,40.40
2023-03-05T22:13:43.913Z,31.58
2023-03-05T22:16:11.130Z,34.80
2023-03-05T22:18:38.204Z,34.05
2023-03-05T22:21:05.704Z,38.50
2023-03-05T22:23:36.663Z,40.13
2023-03-05T22:26:06.673Z,33.75
2023-03-05T22:28:34.940Z,33.70
2023-03-05T22:31:02.225Z,42.50
2023-03-05T22:33:29.689Z,33.22
2023-03-05T22:35:57.266Z,31.08
2023-03-05T22:38:25.336Z,34.90
2023-03-05T22:40:52.614Z,35.92
2023-03-05T22:43:20.340Z,32.85
2023-03-05T22:45:47.702Z,40.00
2023-03-05T22:48:15.407Z,29.42
2023-03-05T22:50:44.175Z,37.53
2023-03-05T22:53:12.474Z,41.40
2023-03-05T22:55:42.731Z,33.60
2023-03-05T22:58:09.944Z,33.95
2023-03-05T23:00:37.562Z,30.38
2023-03-05T23:03:06.267Z,39.72
2023-03-05T23:05:34.451Z,36.72
2023-03-05T23:08:01.639Z,35.95
2023-03-05T23:10:29.235Z,35.63
2023-03-05T23:12:59.121Z,34.95
2023-03-05T23:15:35.100Z,29.98
2023-03-05T23:18:03.064Z,33.17
2023-03-05T23:20:33.968Z,37.83
2023-03-05T23:23:02.194Z,40.00
2023-03-05T23:25:31.475Z,30.08
2023-03-05T23:27:59.307Z,31.80
2023-03-05T23:30:28.146Z,33.85
2023-03-05T23:32:57.766Z,32.33
2023-03-05T23:35:40.048Z,35.67
2023-03-05T23:38:11.719Z,36.65
2023-03-05T23:40:45.208Z,35.90
2023-03-05T23:43:13.299Z,32.42
2023-03-05T23:45:42.143Z,38.78
2023-03-05T23:48:09.778Z,34.35
2023-03-05T23:50:39.804Z,36.45
2023-03-05T23:53:08.090Z,31.33
2023-03-05T23:55:44.580Z,36.20
2023-03-05T23:58:11.998Z,34.17
